Time;durP1;ratioP1;P1;durP2;ratioP2;P2;SDS_P1;SDS_P2;PMS_P1;PMS_P2;Temp;Humidity;BMP_temperature;BMP_pressure;BME280_temperature;BME280_humidity;BME280_pressure;Samples;Min_cycle;Max_cycle;Signal;HPM_P1;HPM_P2
2023/08/30 00:00:56;;;;;;;3.63;3.63;;;13.70;99.90;;;;;;4964555;28;20637;-65
2023/08/30 00:03:24;;;;;;;3.90;3.90;;;13.60;99.90;;;;;;4962567;28;20967;-67
2023/08/30 00:05:51;;;;;;;3.77;3.77;;;13.70;99.90;;;;;;4963604;28;20487;-67
2023/08/30 00:08:18;;;;;;;3.60;3.60;;;13.70;99.90;;;;;;4966430;28;20821;-67
2023/08/30 00:10:45;;;;;;;3.63;3.63;;;13.70;99.90;;;;;;4970395;28;20466;-67
2023/08/30 00:13:14;;;;;;;3.70;3.70;;;13.70;99.90;;;;;;4958616;28;20480;-67
2023/08/30 00:15:41;;;;;;;2.90;2.90;;;13.60;99.90;;;;;;4975639;28;20826;-69
2023/08/30 00:18:09;;;;;;;3.90;3.90;;;13.50;99.90;;;;;;4968267;28;20483;-67
2023/08/30 00:20:37;;;;;;;3.77;3.77;;;13.50;99.90;;;;;;4964350;28;20594;-67
2023/08/30 00:23:04;;;;;;;3.63;3.63;;;13.40;99.90;;;;;;4970389;28;20974;-67
2023/08/30 00:25:31;;;;;;;4.00;4.00;;;13.30;99.90;;;;;;4958647;28;20464;-67
2023/08/30 00:27:58;;;;;;;3.47;3.47;;;13.20;99.90;;;;;;4966795;28;20873;-67
2023/08/30 00:30:27;;;;;;;3.50;3.50;;;13.20;99.90;;;;;;4971668;28;20471;-68
2023/08/30 00:32:53;;;;;;;3.60;3.60;;;13.10;99.90;;;;;;4962942;28;20498;-67
2023/08/30 00:35:20;;;;;;;3.00;3.00;;;13.10;99.90;;;;;;4970354;28;20467;-68
2023/08/30 00:37:47;;;;;;;3.23;3.23;;;13.10;99.90;;;;;;4970416;28;20468;-67
2023/08/30 00:40:14;;;;;;;3.83;3.83;;;13.00;99.90;;;;;;4967837;28;20494;-68
2023/08/30 00:42:42;;;;;;;4.37;4.37;;;13.00;99.90;;;;;;4960633;28;20491;-68
2023/08/30 00:45:09;;;;;;;4.40;4.40;;;13.00;99.90;;;;;;4961520;28;21090;-67
2023/08/30 00:47:37;;;;;;;4.20;4.20;;;13.10;99.90;;;;;;4971520;28;20510;-67
2023/08/30 00:50:05;;;;;;;3.90;3.90;;;13.10;99.90;;;;;;4966778;28;20466;-67
2023/08/30 00:52:32;;;;;;;4.40;4.40;;;13.10;99.90;;;;;;4962500;28;20874;-69
2023/08/30 00:55:00;;;;;;;3.70;3.70;;;13.10;99.90;;;;;;4970061;28;20573;-67
2023/08/30 00:57:27;;;;;;;3.30;3.30;;;13.10;99.90;;;;;;4964659;28;20523;-67
2023/08/30 00:59:54;;;;;;;3.70;3.70;;;13.10;99.90;;;;;;4965593;28;20498;-68
2023/08/30 01:02:23;;;;;;;3.70;3.70;;;12.90;99.90;;;;;;4958560;28;20472;-67
2023/08/30 01:04:51;;;;;;;4.47;4.47;;;12.80;99.90;;;;;;4970362;28;20452;-67
2023/08/30 01:07:19;;;;;;;4.70;4.70;;;12.80;99.90;;;;;;4967484;28;20986;-68
2023/08/30 01:09:46;;;;;;;4.00;4.00;;;12.80;99.90;;;;;;4969603;28;20463;-67
2023/08/30 01:12:18;;;;;;;4.00;4.00;;;12.70;99.90;;;;;;4969884;28;20467;-67
2023/08/30 01:14:53;;;;;;;4.17;4.17;;;12.60;99.90;;;;;;4962707;28;20466;-67
2023/08/30 01:17:24;;;;;;;4.20;4.20;;;12.50;99.90;;;;;;4970379;28;20502;-67
2023/08/30 01:19:59;;;;;;;5.10;5.10;;;12.40;99.90;;;;;;4957508;28;20933;-67
2023/08/30 01:22:39;;;;;;;5.33;5.23;;;12.30;99.90;;;;;;4967168;28;20469;-68
2023/08/30 01:25:19;;;;;;;5.70;5.60;;;12.30;99.90;;;;;;4964732;28;20593;-69
2023/08/30 01:27:49;;;;;;;5.70;5.60;;;12.30;99.90;;;;;;4964291;28;20492;-68
2023/08/30 01:30:18;;;;;;;5.30;5.20;;;12.20;99.90;;;;;;4969738;28;20800;-68
2023/08/30 01:32:46;;;;;;;6.07;5.97;;;12.20;99.90;;;;;;4958853;28;20483;-68
2023/08/30 01:35:17;;;;;;;5.70;5.60;;;12.10;99.90;;;;;;4968086;28;20933;-68
2023/08/30 01:37:45;;;;;;;6.10;6.00;;;12.20;99.90;;;;;;4966917;28;20474;-68
2023/08/30 01:40:13;;;;;;;5.70;5.60;;;12.10;99.90;;;;;;4967049;28;20487;-68
2023/08/30 01:42:41;;;;;;;6.47;6.37;;;12.00;99.90;;;;;;4967151;28;20471;-67
2023/08/30 01:45:13;;;;;;;6.17;6.07;;;12.00;99.90;;;;;;4969622;28;20464;-67
2023/08/30 01:47:42;;;;;;;6.30;6.20;;;12.00;99.90;;;;;;4968934;28;20458;-69
2023/08/30 01:50:10;;;;;;;6.50;6.40;;;12.00;99.90;;;;;;4962031;28;20472;-68
2023/08/30 01:52:38;;;;;;;6.07;5.97;;;12.10;99.90;;;;;;4957702;28;20464;-68
2023/08/30 01:55:06;;;;;;;6.17;6.07;;;12.10;99.90;;;;;;4968423;28;20498;-69
2023/08/30 01:57:33;;;;;;;6.03;5.93;;;12.10;99.90;;;;;;4958828;28;20487;-69
2023/08/30 02:00:00;;;;;;;5.90;5.80;;;12.00;99.90;;;;;;4954088;28;20502;-67
2023/08/30 02:02:31;;;;;;;5.40;5.30;;;12.00;99.90;;;;;;4964725;28;20870;-68
2023/08/30 02:04:58;;;;;;;5.87;5.77;;;12.00;99.90;;;;;;4970339;28;20490;-69
2023/08/30 02:07:34;;;;;;;5.83;5.73;;;11.90;99.90;;;;;;4966350;28;20487;-69
2023/08/30 02:10:04;;;;;;;6.10;6.00;;;11.80;99.90;;;;;;4960436;28;20467;-68
2023/08/30 02:12:43;;;;;;;6.17;6.07;;;11.80;99.90;;;;;;4968876;28;20967;-69
2023/08/30 02:15:12;;;;;;;6.53;6.43;;;11.70;99.90;;;;;;4959152;28;20706;-67
2023/08/30 02:17:43;;;;;;;5.70;5.60;;;11.70;99.90;;;;;;4969295;28;20463;-66
2023/08/30 02:20:12;;;;;;;6.50;6.40;;;11.70;99.90;;;;;;4959055;28;20499;-67
2023/08/30 02:22:40;;;;;;;6.13;6.03;;;11.60;99.90;;;;;;4969367;28;20990;-68
2023/08/30 02:25:08;;;;;;;7.10;7.00;;;11.60;99.90;;;;;;4969941;28;20542;-67
2023/08/30 02:27:35;;;;;;;6.47;6.37;;;11.60;99.90;;;;;;4970011;28;20828;-68
2023/08/30 02:30:04;;;;;;;7.17;7.07;;;11.50;99.90;;;;;;4955547;28;20481;-67
2023/08/30 02:32:31;;;;;;;7.27;7.17;;;11.50;99.90;;;;;;4964640;28;20859;-68
2023/08/30 02:35:00;;;;;;;6.67;6.57;;;11.60;99.90;;;;;;4960772;28;20474;-69
2023/08/30 02:37:29;;;;;;;6.43;6.33;;;11.60;99.90;;;;;;4970150;28;20467;-68
2023/08/30 02:39:57;;;;;;;6.40;6.30;;;11.50;99.90;;;;;;4969505;28;20463;-68
2023/08/30 02:42:24;;;;;;;6.73;6.63;;;11.50;99.90;;;;;;4967625;28;20502;-69
2023/08/30 02:44:52;;;;;;;7.30;7.20;;;11.40;99.90;;;;;;4961513;28;20827;-68
2023/08/30 02:47:20;;;;;;;6.60;6.50;;;11.40;99.90;;;;;;4961721;28;20482;-69
2023/08/30 02:49:47;;;;;;;6.90;6.80;;;11.40;99.90;;;;;;4960655;28;20459;-68
2023/08/30 02:52:15;;;;;;;7.50;7.40;;;11.40;99.90;;;;;;4967515;28;20522;-69
2023/08/30 02:54:42;;;;;;;7.07;6.97;;;11.40;99.90;;;;;;4964772;28;20495;-69
2023/08/30 02:57:10;;;;;;;7.43;7.33;;;11.40;99.90;;;;;;4969902;28;20546;-67
2023/08/30 02:59:37;;;;;;;7.47;7.37;;;11.30;99.90;;;;;;4962867;28;20461;-68
2023/08/30 03:02:04;;;;;;;6.87;6.77;;;11.30;99.90;;;;;;4958435;28;20945;-68
2023/08/30 03:04:31;;;;;;;7.40;7.30;;;11.20;99.90;;;;;;4967097;28;20467;-67
2023/08/30 03:06:58;;;;;;;7.13;7.03;;;11.20;99.90;;;;;;4966707;28;20494;-67
2023/08/30 03:09:28;;;;;;;7.27;7.17;;;11.10;99.90;;;;;;4966707;28;20668;-67
2023/08/30 03:11:55;;;;;;;7.67;7.57;;;11.10;99.90;;;;;;4968947;28;20459;-68
2023/08/30 03:14:23;;;;;;;7.50;7.40;;;11.10;99.90;;;;;;4966784;28;20975;-68
2023/08/30 03:16:51;;;;;;;7.50;7.40;;;11.20;99.90;;;;;;4968692;28;20455;-67
2023/08/30 03:19:19;;;;;;;7.07;6.97;;;11.20;99.90;;;;;;4960056;28;20476;-67
2023/08/30 03:21:47;;;;;;;7.60;7.50;;;11.20;99.90;;;;;;4969075;28;20593;-67
2023/08/30 03:24:15;;;;;;;7.30;7.20;;;11.20;99.90;;;;;;4969185;28;20466;-68
2023/08/30 03:26:45;;;;;;;7.20;7.10;;;11.20;99.90;;;;;;4966673;28;20498;-68
2023/08/30 03:29:12;;;;;;;7.37;7.27;;;11.10;99.90;;;;;;4968471;28;20542;-67
2023/08/30 03:31:39;;;;;;;7.50;7.40;;;11.10;99.90;;;;;;4961231;28;20468;-68
2023/08/30 03:34:06;;;;;;;7.53;7.43;;;11.00;99.90;;;;;;4967673;28;20899;-69
2023/08/30 03:36:33;;;;;;;7.20;7.10;;;11.10;99.90;;;;;;4971392;28;20529;-68
2023/08/30 03:38:59;;;;;;;7.63;7.53;;;11.10;99.90;;;;;;4962831;28;20471;-67
2023/08/30 03:41:27;;;;;;;7.23;7.13;;;11.10;99.90;;;;;;4972781;28;20479;-68
2023/08/30 03:43:56;;;;;;;7.30;7.20;;;11.10;99.90;;;;;;4972754;28;20487;-68
2023/08/30 03:46:23;;;;;;;7.60;7.50;;;11.10;99.90;;;;;;4969159;28;20558;-69
2023/08/30 03:48:49;;;;;;;7.10;7.00;;;11.10;99.90;;;;;;4961795;28;20513;-69
2023/08/30 03:51:18;;;;;;;7.67;7.57;;;11.20;99.90;;;;;;4962421;28;20481;-69
2023/08/30 03:53:44;;;;;;;7.07;6.97;;;11.20;99.90;;;;;;4972565;28;20498;-69
2023/08/30 03:56:12;;;;;;;7.87;7.77;;;11.30;99.90;;;;;;4972513;28;20479;-67
2023/08/30 03:58:39;;;;;;;7.47;7.37;;;11.40;99.90;;;;;;4963257;28;20478;-69
2023/08/30 04:01:08;;;;;;;7.17;7.07;;;11.60;99.90;;;;;;4970163;28;20479;-68
2023/08/30 04:03:36;;;;;;;6.47;6.37;;;11.70;99.90;;;;;;4965942;28;20459;-67
2023/08/30 04:06:02;;;;;;;6.70;6.60;;;11.80;99.90;;;;;;4964787;28;20467;-67
2023/08/30 04:08:29;;;;;;;6.30;6.20;;;11.90;99.90;;;;;;4967091;28;20459;-69
2023/08/30 04:10:56;;;;;;;5.70;5.60;;;12.10;99.90;;;;;;4964434;28;20970;-68
2023/08/30 04:13:23;;;;;;;5.83;5.73;;;12.30;99.90;;;;;;4969676;28;20476;-69
2023/08/30 04:15:50;;;;;;;5.57;5.47;;;12.40;99.90;;;;;;4972074;28;20463;-68
2023/08/30 04:18:18;;;;;;;5.30;5.20;;;12.50;99.90;;;;;;4955804;28;20468;-68
2023/08/30 04:20:46;;;;;;;5.53;5.43;;;12.60;99.90;;;;;;4968163;28;20484;-69
2023/08/30 04:23:14;;;;;;;6.10;6.00;;;12.60;99.90;;;;;;4972047;28;20843;-68
2023/08/30 04:25:41;;;;;;;5.80;5.70;;;12.70;99.90;;;;;;4964479;28;20455;-68
2023/08/30 04:28:09;;;;;;;5.50;5.40;;;12.80;99.90;;;;;;4968980;28;20518;-68
2023/08/30 04:30:38;;;;;;;5.37;5.27;;;12.90;99.90;;;;;;4976450;28;20465;-68
2023/08/30 04:33:06;;;;;;;6.17;6.07;;;12.90;99.90;;;;;;4965442;28;20487;-68
2023/08/30 04:35:34;;;;;;;6.70;6.60;;;13.00;99.90;;;;;;4963741;28;20472;-68
2023/08/30 04:38:01;;;;;;;5.80;5.70;;;13.00;99.90;;;;;;4967309;28;20455;-67
2023/08/30 04:40:28;;;;;;;5.70;5.60;;;13.10;99.90;;;;;;4972252;28;20818;-68
2023/08/30 04:42:55;;;;;;;5.90;5.80;;;13.10;99.90;;;;;;4971582;28;20573;-68
2023/08/30 04:45:22;;;;;;;6.27;6.17;;;13.20;99.90;;;;;;4967537;28;20542;-68
2023/08/30 04:47:49;;;;;;;6.60;6.50;;;13.20;99.90;;;;;;4970341;28;21139;-68
2023/08/30 04:50:16;;;;;;;6.90;6.80;;;13.30;99.90;;;;;;4966003;28;20866;-68
2023/08/30 04:52:44;;;;;;;6.37;6.27;;;13.30;99.90;;;;;;4960370;28;20478;-67
2023/08/30 04:55:12;;;;;;;6.60;6.50;;;13.40;99.90;;;;;;4953092;28;20579;-68
2023/08/30 04:57:39;;;;;;;6.23;6.13;;;13.50;99.90;;;;;;4950202;29;20651;-68
2023/08/30 05:00:09;;;;;;;6.10;6.00;;;13.50;99.90;;;;;;4949792;28;20531;-69
2023/08/30 05:02:36;;;;;;;5.90;5.80;;;13.50;99.90;;;;;;4933240;29;20511;-69
2023/08/30 05:05:03;;;;;;;6.00;5.90;;;13.50;99.90;;;;;;4941762;29;20468;-69
2023/08/30 05:07:31;;;;;;;5.60;5.50;;;13.60;99.90;;;;;;4933085;29;20556;-69
2023/08/30 05:09:59;;;;;;;5.07;5.07;;;13.60;99.90;;;;;;4940476;29;20469;-68
2023/08/30 05:12:26;;;;;;;5.53;5.43;;;13.60;99.90;;;;;;4942510;29;20464;-69
2023/08/30 05:14:53;;;;;;;5.70;5.60;;;13.60;99.90;;;;;;4942530;29;20521;-68
2023/08/30 05:17:19;;;;;;;5.80;5.70;;;13.60;99.90;;;;;;4942210;29;20770;-69
2023/08/30 05:19:47;;;;;;;5.50;5.40;;;13.60;99.90;;;;;;4940091;29;20480;-68
2023/08/30 05:22:14;;;;;;;4.93;4.93;;;13.60;99.90;;;;;;4944215;29;20488;-68
2023/08/30 05:24:41;;;;;;;5.70;5.60;;;13.60;99.90;;;;;;4934021;29;20477;-67
2023/08/30 05:27:11;;;;;;;5.50;5.40;;;13.70;99.90;;;;;;4948723;29;20495;-68
2023/08/30 05:29:39;;;;;;;5.47;5.37;;;13.70;99.90;;;;;;4946693;29;20837;-68
2023/08/30 05:32:07;;;;;;;4.97;4.97;;;13.70;99.90;;;;;;4957838;28;20499;-68
2023/08/30 05:34:35;;;;;;;4.60;4.60;;;13.70;99.90;;;;;;4947699;29;20553;-68
2023/08/30 05:37:02;;;;;;;4.57;4.57;;;13.80;99.90;;;;;;4949084;29;20460;-69
2023/08/30 05:39:29;;;;;;;4.90;4.90;;;13.80;99.90;;;;;;4942234;29;20495;-67
2023/08/30 05:41:57;;;;;;;4.47;4.47;;;13.90;99.90;;;;;;4950144;29;20483;-68
2023/08/30 05:44:25;;;;;;;4.37;4.37;;;14.00;99.90;;;;;;4941520;29;20914;-67
2023/08/30 05:46:52;;;;;;;5.33;5.23;;;14.00;99.90;;;;;;4949528;29;20937;-68
2023/08/30 05:49:19;;;;;;;4.90;4.90;;;14.10;99.90;;;;;;4944421;29;20465;-67
2023/08/30 05:51:47;;;;;;;4.87;4.87;;;14.10;99.90;;;;;;4946787;29;20842;-69
2023/08/30 05:54:14;;;;;;;5.73;5.63;;;14.20;99.90;;;;;;4956125;28;20487;-69
2023/08/30 05:56:42;;;;;;;5.60;5.50;;;14.30;99.90;;;;;;4944688;28;20489;-69
2023/08/30 05:59:09;;;;;;;6.07;5.97;;;14.40;99.90;;;;;;4969382;28;20466;-68
2023/08/30 06:01:38;;;;;;;6.20;6.10;;;14.40;99.90;;;;;;4964322;28;20494;-68
2023/08/30 06:04:05;;;;;;;6.37;6.27;;;14.60;99.90;;;;;;4964666;28;20463;-68
2023/08/30 06:06:32;;;;;;;6.83;6.73;;;14.70;99.90;;;;;;4964537;28;20490;-68
2023/08/30 06:08:59;;;;;;;6.93;6.83;;;14.80;99.90;;;;;;4961330;28;20479;-67
2023/08/30 06:11:26;;;;;;;6.90;6.80;;;14.90;99.90;;;;;;4961342;28;20574;-68
2023/08/30 06:13:53;;;;;;;7.67;7.57;;;15.00;99.90;;;;;;4964801;28;20479;-68
2023/08/30 06:16:20;;;;;;;7.90;7.80;;;15.10;99.90;;;;;;4966150;28;20463;-68
2023/08/30 06:18:47;;;;;;;8.40;8.30;;;15.10;99.90;;;;;;4968898;28;20455;-69
2023/08/30 06:21:15;;;;;;;8.90;8.80;;;15.20;99.90;;;;;;4966788;28;20483;-68
2023/08/30 06:23:41;;;;;;;8.93;8.83;;;15.30;99.90;;;;;;4961405;28;20471;-68
2023/08/30 06:26:08;;;;;;;9.00;8.90;;;15.30;99.90;;;;;;4962811;28;20467;-69
2023/08/30 06:28:35;;;;;;;8.80;8.70;;;15.40;99.90;;;;;;4957676;28;20503;-70
2023/08/30 06:31:02;;;;;;;9.67;9.47;;;15.40;99.90;;;;;;4972757;28;20464;-68
2023/08/30 06:33:29;;;;;;;9.60;9.40;;;15.40;99.90;;;;;;4962381;28;20495;-68
2023/08/30 06:35:57;;;;;;;9.37;9.17;;;15.40;99.90;;;;;;4964653;28;20470;-68
2023/08/30 06:38:24;;;;;;;9.70;9.50;;;15.40;99.90;;;;;;4957099;28;20526;-68
2023/08/30 06:40:50;;;;;;;9.40;9.20;;;15.50;99.90;;;;;;4963020;28;20521;-68
2023/08/30 06:43:18;;;;;;;9.97;9.77;;;15.50;99.90;;;;;;4958949;28;20501;-67
2023/08/30 06:45:46;;;;;;;9.70;9.50;;;15.60;99.90;;;;;;4965308;28;20460;-70
2023/08/30 06:48:13;;;;;;;9.97;9.77;;;15.70;99.90;;;;;;4960739;28;20469;-70
2023/08/30 06:50:40;;;;;;;10.00;9.80;;;15.70;99.90;;;;;;4962530;28;20463;-68
2023/08/30 06:53:09;;;;;;;10.27;10.07;;;15.80;99.90;;;;;;4963163;28;20975;-68
2023/08/30 06:55:36;;;;;;;10.13;9.93;;;15.80;99.90;;;;;;4968257;28;20473;-68
2023/08/30 06:58:05;;;;;;;10.70;10.50;;;15.90;99.90;;;;;;4964912;28;20474;-68
2023/08/30 07:00:32;;;;;;;10.20;10.00;;;16.00;99.90;;;;;;4956817;28;20479;-68
2023/08/30 07:03:00;;;;;;;10.47;10.27;;;16.20;99.90;;;;;;4963893;28;20495;-70
2023/08/30 07:05:27;;;;;;;10.67;10.47;;;16.30;99.90;;;;;;4968739;28;20459;-67
2023/08/30 07:07:53;;;;;;;10.87;10.67;;;16.40;99.90;;;;;;4961761;28;20472;-68
2023/08/30 07:10:22;;;;;;;10.50;10.30;;;16.60;99.90;;;;;;4967735;28;20475;-68
2023/08/30 07:12:49;;;;;;;10.93;10.73;;;16.80;99.90;;;;;;4965657;28;20467;-68
2023/08/30 07:15:17;;;;;;;11.60;11.30;;;17.00;99.90;;;;;;4970221;28;20510;-67
2023/08/30 07:17:44;;;;;;;11.67;11.37;;;17.20;99.90;;;;;;4968022;28;20558;-69
2023/08/30 07:20:12;;;;;;;12.37;12.07;;;17.40;99.90;;;;;;4967170;28;20479;-67
2023/08/30 07:22:39;;;;;;;12.10;11.80;;;17.80;99.90;;;;;;4964482;28;21011;-69
2023/08/30 07:25:08;;;;;;;12.50;12.20;;;17.90;99.90;;;;;;4965105;28;20471;-69
2023/08/30 07:27:37;;;;;;;12.60;12.30;;;18.10;99.90;;;;;;4970382;28;20510;-66
2023/08/30 07:30:05;;;;;;;12.90;12.50;;;18.10;99.90;;;;;;4972040;28;20893;-69
2023/08/30 07:32:32;;;;;;;13.07;12.67;;;18.40;99.90;;;;;;4974016;28;20550;-68
2023/08/30 07:34:59;;;;;;;13.00;12.60;;;18.60;99.90;;;;;;4964257;28;20471;-69
2023/08/30 07:37:26;;;;;;;13.10;12.70;;;18.80;99.90;;;;;;4966790;28;20458;-67
2023/08/30 07:39:53;;;;;;;13.03;12.63;;;19.00;99.90;;;;;;4968595;28;20474;-67
2023/08/30 07:42:19;;;;;;;13.17;12.77;;;18.90;99.90;;;;;;4964835;28;20486;-67
2023/08/30 07:44:47;;;;;;;12.40;12.10;;;19.00;99.90;;;;;;4960498;28;20505;-67
2023/08/30 07:47:14;;;;;;;12.57;12.23;;;19.10;99.90;;;;;;4968557;28;20459;-69
2023/08/30 07:49:43;;;;;;;13.30;12.90;;;19.10;99.90;;;;;;4961052;28;20472;-67
2023/08/30 07:52:10;;;;;;;12.93;12.53;;;19.20;99.90;;;;;;4967747;28;20562;-67
2023/08/30 07:54:39;;;;;;;13.20;12.80;;;19.60;99.90;;;;;;4954455;28;20852;-69
2023/08/30 07:57:07;;;;;;;13.10;12.70;;;19.80;99.90;;;;;;4945954;29;20999;-67
2023/08/30 07:59:34;;;;;;;12.60;12.30;;;20.10;99.90;;;;;;4952349;29;20494;-68
2023/08/30 08:02:03;;;;;;;12.73;12.40;;;20.40;99.90;;;;;;4955113;28;20582;-69
2023/08/30 08:04:30;;;;;;;12.90;12.50;;;20.40;99.90;;;;;;4934476;29;20457;-69
2023/08/30 08:06:57;;;;;;;12.40;12.10;;;20.40;99.90;;;;;;4943351;29;20558;-66
2023/08/30 08:09:24;;;;;;;12.50;12.20;;;20.40;99.90;;;;;;4946265;29;20464;-68
2023/08/30 08:11:51;;;;;;;13.10;12.70;;;20.30;99.90;;;;;;4946203;29;20464;-66
2023/08/30 08:14:18;;;;;;;12.33;12.03;;;20.10;99.90;;;;;;4945985;29;20468;-67
2023/08/30 08:16:45;;;;;;;12.40;12.10;;;20.00;99.90;;;;;;4942423;28;20844;-66
2023/08/30 08:19:13;;;;;;;12.53;12.13;;;19.90;99.90;;;;;;4951215;28;20469;-66
2023/08/30 08:21:39;;;;;;;14.40;13.90;;;19.40;99.90;;;;;;4944897;28;20543;-67
2023/08/30 08:24:07;;;;;;;15.00;14.50;;;19.00;99.90;;;;;;4939698;29;20626;-67
2023/08/30 08:26:34;;;;;;;14.00;13.50;;;18.60;99.90;;;;;;4950000;28;20459;-67
2023/08/30 08:29:01;;;;;;;13.03;12.63;;;18.10;99.90;;;;;;4948572;29;20492;-66
2023/08/30 08:31:29;;;;;;;11.70;11.40;;;18.00;99.90;;;;;;4948451;28;20465;-66
2023/08/30 08:34:08;;;;;;;11.83;11.53;;;18.10;99.90;;;;;;4934521;29;20473;-66
2023/08/30 08:36:36;;;;;;;10.13;9.93;;;18.10;99.90;;;;;;4942793;29;20476;-67
2023/08/30 08:39:04;;;;;;;11.30;11.00;;;18.20;99.90;;;;;;4943898;29;20548;-67
2023/08/30 08:41:39;;;;;;;12.10;11.80;;;18.40;99.90;;;;;;4943704;29;20968;-67
2023/08/30 08:44:08;;;;;;;12.40;12.10;;;18.70;99.90;;;;;;4942483;29;20502;-66
2023/08/30 08:46:36;;;;;;;13.10;12.70;;;19.00;99.90;;;;;;4944760;28;20464;-66
2023/08/30 08:49:08;;;;;;;13.03;12.63;;;19.30;99.90;;;;;;4937772;29;20532;-67
2023/08/30 08:51:38;;;;;;;12.60;12.30;;;19.40;99.90;;;;;;4940070;29;21040;-66
2023/08/30 08:54:06;;;;;;;13.00;12.60;;;19.70;99.90;;;;;;4936302;28;20497;-68
2023/08/30 08:56:34;;;;;;;12.50;12.20;;;19.60;99.90;;;;;;4938642;28;20594;-66
2023/08/30 08:59:01;;;;;;;13.43;13.03;;;19.70;99.90;;;;;;4946711;28;20479;-68
2023/08/30 09:01:28;;;;;;;12.97;12.57;;;19.50;99.90;;;;;;4940810;28;20456;-67
2023/08/30 09:03:55;;;;;;;12.60;12.30;;;19.20;99.90;;;;;;4943741;29;20496;-66
2023/08/30 09:06:23;;;;;;;12.40;12.10;;;19.30;99.90;;;;;;4936864;29;20468;-67
2023/08/30 09:08:51;;;;;;;13.07;12.67;;;19.30;99.90;;;;;;4944500;29;20464;-66
2023/08/30 09:11:18;;;;;;;13.07;12.67;;;19.10;99.90;;;;;;4942597;29;20464;-66
2023/08/30 09:13:45;;;;;;;13.10;12.70;;;19.40;99.90;;;;;;4950928;28;20456;-67
2023/08/30 09:16:15;;;;;;;13.23;12.83;;;19.60;99.90;;;;;;4950839;29;20464;-67
2023/08/30 09:18:42;;;;;;;13.20;12.80;;;19.90;99.90;;;;;;4948377;29;20480;-67
2023/08/30 09:21:10;;;;;;;13.40;13.00;;;20.20;99.90;;;;;;4943169;28;20496;-67
2023/08/30 09:23:37;;;;;;;13.30;12.90;;;20.20;99.90;;;;;;4944589;29;20995;-67
2023/08/30 09:26:06;;;;;;;13.20;12.80;;;20.10;99.90;;;;;;4942357;29;20563;-67
2023/08/30 09:28:42;;;;;;;12.53;12.23;;;20.10;99.90;;;;;;4938330;29;20469;-68
2023/08/30 09:31:17;;;;;;;13.33;12.93;;;19.90;99.90;;;;;;4941974;28;20472;-67
2023/08/30 09:33:47;;;;;;;12.20;11.90;;;20.00;99.90;;;;;;4946304;29;20468;-67
2023/08/30 09:36:14;;;;;;;12.70;12.40;;;20.00;99.90;;;;;;4938383;29;20469;-67
2023/08/30 09:38:41;;;;;;;12.90;12.50;;;20.20;99.90;;;;;;4949327;29;20456;-67
2023/08/30 09:41:10;;;;;;;12.67;12.37;;;20.60;99.90;;;;;;4943873;29;20476;-66
2023/08/30 09:43:43;;;;;;;13.07;12.67;;;20.70;99.90;;;;;;4949915;29;20491;-67
2023/08/30 09:46:10;;;;;;;13.10;12.70;;;20.60;99.90;;;;;;4943647;29;20464;-67
2023/08/30 09:48:40;;;;;;;13.27;12.87;;;20.60;99.90;;;;;;4938947;29;20494;-67
2023/08/30 09:51:09;;;;;;;12.40;12.10;;;20.70;99.90;;;;;;4950442;29;20496;-68
2023/08/30 09:53:42;;;;;;;13.07;12.67;;;21.10;99.90;;;;;;4956181;28;20518;-68
2023/08/30 09:56:13;;;;;;;13.10;12.70;;;21.00;99.90;;;;;;4963221;28;20475;-67
2023/08/30 09:58:42;;;;;;;13.00;12.60;;;20.80;99.90;;;;;;4958363;28;20550;-66
2023/08/30 10:01:11;;;;;;;12.70;12.37;;;20.40;99.90;;;;;;4953240;28;20832;-67
2023/08/30 10:03:39;;;;;;;13.00;12.60;;;20.00;99.90;;;;;;4964121;28;20503;-66
2023/08/30 10:06:07;;;;;;;12.90;12.50;;;19.80;99.90;;;;;;4967417;28;20550;-67
2023/08/30 10:08:36;;;;;;;13.90;13.50;;;19.50;99.90;;;;;;4957376;28;20502;-67
2023/08/30 10:11:05;;;;;;;14.20;13.70;;;18.80;99.90;;;;;;4950787;28;20470;-65
2023/08/30 10:13:36;;;;;;;17.50;16.70;;;17.80;99.90;;;;;;4966559;28;20476;-64
2023/08/30 10:16:05;;;;;;;16.30;15.50;;;17.00;99.90;;;;;;4958614;28;20467;-66
2023/08/30 10:18:34;;;;;;;13.90;13.40;;;16.50;99.90;;;;;;4962050;28;20461;-64
2023/08/30 10:21:08;;;;;;;14.60;14.00;;;16.20;99.90;;;;;;4960766;28;20498;-66
2023/08/30 10:23:37;;;;;;;12.40;12.00;;;15.70;99.90;;;;;;4969041;28;20602;-66
2023/08/30 10:26:06;;;;;;;11.50;11.20;;;15.50;99.90;;;;;;4962428;28;21022;-65
2023/08/30 10:28:36;;;;;;;10.63;10.40;;;15.40;99.90;;;;;;4963017;28;20496;-66
2023/08/30 10:31:04;;;;;;;9.93;9.73;;;15.30;99.90;;;;;;4956055;28;20472;-66
2023/08/30 10:33:31;;;;;;;10.13;9.93;;;15.30;99.90;;;;;;4960502;28;20460;-65
2023/08/30 10:36:06;;;;;;;10.40;10.20;;;15.40;99.90;;;;;;4961777;28;20521;-66
2023/08/30 10:38:38;;;;;;;9.03;8.83;;;15.40;99.90;;;;;;4954028;28;20475;-65
2023/08/30 10:41:08;;;;;;;8.73;8.63;;;15.40;99.90;;;;;;4958015;28;20484;-65
2023/08/30 10:43:38;;;;;;;8.03;7.93;;;15.40;99.90;;;;;;4959811;28;20590;-65
2023/08/30 10:46:07;;;;;;;8.50;8.40;;;15.70;99.90;;;;;;4960293;28;20989;-66
2023/08/30 10:48:38;;;;;;;8.10;8.00;;;15.80;99.90;;;;;;4958334;28;20519;-65
2023/08/30 10:51:07;;;;;;;7.60;7.50;;;15.90;99.90;;;;;;4965813;28;20481;-66
2023/08/30 10:53:34;;;;;;;7.50;7.40;;;16.00;99.90;;;;;;4952257;28;20560;-66
2023/08/30 10:56:04;;;;;;;7.20;7.10;;;16.30;99.90;;;;;;4940979;29;20527;-66
2023/08/30 10:58:42;;;;;;;6.93;6.83;;;16.40;99.90;;;;;;4949167;29;20464;-66
2023/08/30 11:01:11;;;;;;;6.50;6.40;;;16.40;99.90;;;;;;4935814;29;20551;-66
2023/08/30 11:03:39;;;;;;;7.60;7.50;;;16.40;99.90;;;;;;4948885;29;20484;-66
2023/08/30 11:06:06;;;;;;;8.30;8.20;;;16.20;99.90;;;;;;4946963;29;20520;-67
2023/08/30 11:08:35;;;;;;;8.83;8.70;;;16.20;99.90;;;;;;4934492;29;20468;-66
2023/08/30 11:11:05;;;;;;;8.23;8.13;;;16.00;99.90;;;;;;4943582;29;20479;-64
2023/08/30 11:13:32;;;;;;;8.10;8.00;;;16.10;99.90;;;;;;4949378;29;20515;-65
2023/08/30 11:16:04;;;;;;;8.60;8.50;;;15.90;99.90;;;;;;4957003;28;20990;-64
2023/08/30 11:18:32;;;;;;;8.00;7.90;;;15.80;99.90;;;;;;4945774;28;20461;-66
2023/08/30 11:21:01;;;;;;;8.37;8.27;;;15.60;99.90;;;;;;4947249;29;20492;-66
2023/08/30 11:23:28;;;;;;;8.37;8.27;;;15.60;99.90;;;;;;4941637;29;20543;-66
2023/08/30 11:25:55;;;;;;;8.63;8.53;;;15.60;99.90;;;;;;4947308;29;20463;-68
2023/08/30 11:28:26;;;;;;;8.43;8.33;;;15.70;99.90;;;;;;4949106;29;20874;-65
2023/08/30 11:30:54;;;;;;;8.37;8.27;;;15.70;99.90;;;;;;4938409;29;20829;-65
2023/08/30 11:33:24;;;;;;;8.07;7.97;;;15.80;99.90;;;;;;4944426;29;20545;-66
2023/08/30 11:35:52;;;;;;;8.57;8.47;;;15.80;99.90;;;;;;4943182;29;20461;-66
2023/08/30 11:38:20;;;;;;;8.93;8.73;;;16.00;99.90;;;;;;4946161;29;20469;-66
2023/08/30 11:40:51;;;;;;;8.17;8.07;;;15.90;99.90;;;;;;4946198;29;20465;-66
2023/08/30 11:43:18;;;;;;;8.50;8.40;;;15.90;99.90;;;;;;4933240;29;20578;-66
2023/08/30 11:45:46;;;;;;;8.50;8.40;;;15.90;99.90;;;;;;4935562;29;20477;-65
2023/08/30 11:48:13;;;;;;;8.60;8.50;;;15.90;99.90;;;;;;4934657;29;20983;-66
2023/08/30 11:50:43;;;;;;;8.40;8.30;;;15.90;99.90;;;;;;4939260;29;20531;-66
2023/08/30 11:53:10;;;;;;;8.80;8.70;;;15.80;99.90;;;;;;4934543;28;20877;-66
2023/08/30 11:55:38;;;;;;;8.50;8.40;;;15.80;99.90;;;;;;4944959;28;20460;-67
2023/08/30 11:58:05;;;;;;;8.20;8.10;;;15.90;99.90;;;;;;4949434;28;20464;-67
2023/08/30 12:00:35;;;;;;;8.17;8.07;;;16.00;99.90;;;;;;4946649;28;20469;-66
2023/08/30 12:03:02;;;;;;;8.40;8.30;;;16.00;99.90;;;;;;4945136;28;20457;-67
2023/08/30 12:05:33;;;;;;;8.63;8.53;;;16.00;99.90;;;;;;4945035;28;20495;-65
2023/08/30 12:08:02;;;;;;;9.47;9.27;;;15.90;99.90;;;;;;4928894;29;20500;-66
2023/08/30 12:10:31;;;;;;;9.80;9.60;;;15.90;99.90;;;;;;4949138;29;20471;-66
2023/08/30 12:12:58;;;;;;;8.30;8.20;;;15.90;99.90;;;;;;4952265;29;20519;-65
2023/08/30 12:15:27;;;;;;;7.80;7.70;;;16.00;99.90;;;;;;4945668;28;21029;-66
2023/08/30 12:17:54;;;;;;;8.00;7.90;;;16.20;99.90;;;;;;4957194;28;20499;-66
2023/08/30 12:20:23;;;;;;;7.80;7.70;;;16.20;99.90;;;;;;4951919;29;20491;-67
2023/08/30 12:22:51;;;;;;;8.10;8.00;;;16.10;99.90;;;;;;4949201;29;20556;-65
2023/08/30 12:25:20;;;;;;;7.40;7.30;;;16.10;99.90;;;;;;4943073;29;20507;-66
2023/08/30 12:27:48;;;;;;;8.30;8.20;;;16.00;99.90;;;;;;4951732;29;20469;-66
2023/08/30 12:30:16;;;;;;;8.17;8.07;;;16.00;99.90;;;;;;4951446;29;20892;-65
2023/08/30 12:32:43;;;;;;;7.80;7.70;;;16.10;99.90;;;;;;4947544;29;20474;-65
2023/08/30 12:35:10;;;;;;;7.63;7.53;;;16.00;99.90;;;;;;4939707;29;21082;-66
2023/08/30 12:37:37;;;;;;;8.10;8.00;;;16.10;99.90;;;;;;4946210;28;20568;-66
2023/08/30 12:40:07;;;;;;;7.80;7.70;;;16.20;99.90;;;;;;4944538;29;20468;-65
2023/08/30 12:42:35;;;;;;;7.23;7.13;;;16.30;99.90;;;;;;4949968;28;20778;-66
2023/08/30 12:45:03;;;;;;;8.07;7.97;;;16.60;99.90;;;;;;4947111;29;20550;-67